sensor_id;sensor_type;location;lat;lon;timestamp;pressure;altitude;pressure_sealevel;temperature;humidity
4767;BME280;2397;53.576;9.746;2024-01-06T00:02:05;100511.88;;;-0.38;100.00
4767;BME280;2397;53.576;9.746;2024-01-06T00:04:32;100505.13;;;-0.41;100.00
4767;BME280;2397;53.576;9.746;2024-01-06T00:06:58;100512.56;;;-0.35;100.00
4767;BME280;2397;53.576;9.746;2024-01-06T00:09:25;100513.03;;;-0.28;100.00
4767;BME280;2397;53.576;9.746;2024-01-06T00:11:51;100510.78;;;-0.34;100.00
4767;BME280;2397;53.576;9.746;2024-01-06T00:14:18;100502.81;;;-0.31;100.00
4767;BME280;2397;53.576;9.746;2024-01-06T00:16:44;100521.91;;;-0.32;100.00
4767;BME280;2397;53.576;9.746;2024-01-06T00:19:11;100516.63;;;-0.31;100.00
4767;BME280;2397;53.576;9.746;2024-01-06T00:21:38;100520.97;;;-0.31;100.00
4767;BME280;2397;53.576;9.746;2024-01-06T00:24:05;100513.44;;;-0.36;100.00
4767;BME280;2397;53.576;9.746;2024-01-06T00:26:32;100514.22;;;-0.34;100.00
4767;BME280;2397;53.576;9.746;2024-01-06T00:28:58;100512.34;;;-0.32;100.00
4767;BME280;2397;53.576;9.746;2024-01-06T00:31:25;100518.72;;;-0.37;100.00
4767;BME280;2397;53.576;9.746;2024-01-06T00:33:51;100522.25;;;-0.38;100.00
4767;BME280;2397;53.576;9.746;2024-01-06T00:36:18;100520.81;;;-0.28;100.00
4767;BME280;2397;53.576;9.746;2024-01-06T00:38:45;100525.22;;;-0.30;100.00
4767;BME280;2397;53.576;9.746;2024-01-06T00:41:11;100525.13;;;-0.29;100.00
4767;BME280;2397;53.576;9.746;2024-01-06T00:43:38;100531.09;;;-0.27;100.00
4767;BME280;2397;53.576;9.746;2024-01-06T00:46:04;100529.59;;;-0.31;100.00
4767;BME280;2397;53.576;9.746;2024-01-06T00:48:31;100527.41;;;-0.23;100.00
4767;BME280;2397;53.576;9.746;2024-01-06T00:50:57;100532.03;;;-0.28;100.00
4767;BME280;2397;53.576;9.746;2024-01-06T00:53:24;100534.31;;;-0.23;100.00
4767;BME280;2397;53.576;9.746;2024-01-06T00:55:50;100530.06;;;-0.24;100.00
4767;BME280;2397;53.576;9.746;2024-01-06T00:58:17;100534.88;;;-0.32;100.00
4767;BME280;2397;53.576;9.746;2024-01-06T01:00:43;100542.19;;;-0.25;100.00
4767;BME280;2397;53.576;9.746;2024-01-06T01:03:10;100550.72;;;-0.23;100.00
4767;BME280;2397;53.576;9.746;2024-01-06T01:05:37;100547.56;;;-0.28;100.00
4767;BME280;2397;53.576;9.746;2024-01-06T01:08:04;100555.91;;;-0.23;100.00
4767;BME280;2397;53.576;9.746;2024-01-06T01:10:30;100551.75;;;-0.25;100.00
4767;BME280;2397;53.576;9.746;2024-01-06T01:12:57;100550.66;;;-0.21;100.00
4767;BME280;2397;53.576;9.746;2024-01-06T01:15:24;100568.97;;;-0.24;100.00
4767;BME280;2397;53.576;9.746;2024-01-06T01:17:51;100563.56;;;-0.35;100.00
4767;BME280;2397;53.576;9.746;2024-01-06T01:20:18;100567.72;;;-0.33;100.00
4767;BME280;2397;53.576;9.746;2024-01-06T01:22:44;100568.41;;;-0.29;100.00
4767;BME280;2397;53.576;9.746;2024-01-06T01:25:11;100573.69;;;-0.31;100.00
4767;BME280;2397;53.576;9.746;2024-01-06T01:27:39;100579.03;;;-0.34;100.00
4767;BME280;2397;53.576;9.746;2024-01-06T01:30:06;100585.78;;;-0.31;100.00
4767;BME280;2397;53.576;9.746;2024-01-06T01:32:33;100589.31;;;-0.32;100.00
4767;BME280;2397;53.576;9.746;2024-01-06T01:35:00;100590.81;;;-0.28;100.00
4767;BME280;2397;53.576;9.746;2024-01-06T01:37:27;100596.72;;;-0.26;100.00
4767;BME280;2397;53.576;9.746;2024-01-06T01:39:53;100587.47;;;-0.30;100.00
4767;BME280;2397;53.576;9.746;2024-01-06T01:42:19;100601.28;;;-0.30;100.00
4767;BME280;2397;53.576;9.746;2024-01-06T01:44:46;100596.41;;;-0.20;100.00
4767;BME280;2397;53.576;9.746;2024-01-06T01:47:13;100596.66;;;-0.25;100.00
4767;BME280;2397;53.576;9.746;2024-01-06T01:49:46;100600.41;;;-0.30;100.00
4767;BME280;2397;53.576;9.746;2024-01-06T01:52:14;100597.00;;;-0.31;100.00
4767;BME280;2397;53.576;9.746;2024-01-06T01:54:41;100601.59;;;-0.20;100.00
4767;BME280;2397;53.576;9.746;2024-01-06T01:57:10;100599.25;;;-0.25;100.00
4767;BME280;2397;53.576;9.746;2024-01-06T01:59:37;100602.28;;;-0.32;100.00
4767;BME280;2397;53.576;9.746;2024-01-06T02:02:05;100601.50;;;-0.34;100.00
4767;BME280;2397;53.576;9.746;2024-01-06T02:04:32;100603.22;;;-0.33;100.00
4767;BME280;2397;53.576;9.746;2024-01-06T02:06:58;100604.72;;;-0.29;100.00
4767;BME280;2397;53.576;9.746;2024-01-06T02:09:25;100613.38;;;-0.30;100.00
4767;BME280;2397;53.576;9.746;2024-01-06T02:11:58;100613.47;;;-0.32;100.00
4767;BME280;2397;53.576;9.746;2024-01-06T02:14:25;100608.41;;;-0.33;100.00
4767;BME280;2397;53.576;9.746;2024-01-06T02:16:52;100615.81;;;-0.27;100.00
4767;BME280;2397;53.576;9.746;2024-01-06T02:19:18;100613.38;;;-0.30;100.00
4767;BME280;2397;53.576;9.746;2024-01-06T02:21:54;100621.00;;;-0.27;100.00
4767;BME280;2397;53.576;9.746;2024-01-06T02:24:21;100613.31;;;-0.29;100.00
4767;BME280;2397;53.576;9.746;2024-01-06T02:26:48;100617.06;;;-0.34;100.00
4767;BME280;2397;53.576;9.746;2024-01-06T02:29:14;100624.03;;;-0.35;100.00
4767;BME280;2397;53.576;9.746;2024-01-06T02:31:41;100618.84;;;-0.35;100.00
4767;BME280;2397;53.576;9.746;2024-01-06T02:34:07;100625.22;;;-0.40;100.00
4767;BME280;2397;53.576;9.746;2024-01-06T02:36:34;100631.28;;;-0.41;100.00
4767;BME280;2397;53.576;9.746;2024-01-06T02:39:01;100628.78;;;-0.43;100.00
4767;BME280;2397;53.576;9.746;2024-01-06T02:41:27;100642.75;;;-0.45;100.00
4767;BME280;2397;53.576;9.746;2024-01-06T02:43:54;100640.94;;;-0.43;100.00
4767;BME280;2397;53.576;9.746;2024-01-06T02:46:21;100648.09;;;-0.48;100.00
4767;BME280;2397;53.576;9.746;2024-01-06T02:48:48;100656.00;;;-0.50;100.00
4767;BME280;2397;53.576;9.746;2024-01-06T02:51:14;100649.97;;;-0.50;100.00
4767;BME280;2397;53.576;9.746;2024-01-06T02:53:41;100641.66;;;-0.41;100.00
4767;BME280;2397;53.576;9.746;2024-01-06T02:56:11;100656.31;;;-0.40;100.00
4767;BME280;2397;53.576;9.746;2024-01-06T02:58:38;100653.88;;;-0.43;100.00
4767;BME280;2397;53.576;9.746;2024-01-06T03:01:05;100652.31;;;-0.46;100.00
4767;BME280;2397;53.576;9.746;2024-01-06T03:03:32;100644.78;;;-0.50;100.00
4767;BME280;2397;53.576;9.746;2024-01-06T03:05:58;100661.06;;;-0.48;100.00
4767;BME280;2397;53.576;9.746;2024-01-06T03:08:25;100659.63;;;-0.54;100.00
4767;BME280;2397;53.576;9.746;2024-01-06T03:10:52;100656.06;;;-0.51;100.00
4767;BME280;2397;53.576;9.746;2024-01-06T03:13:18;100656.16;;;-0.53;100.00
4767;BME280;2397;53.576;9.746;2024-01-06T03:15:45;100662.75;;;-0.47;100.00
4767;BME280;2397;53.576;9.746;2024-01-06T03:18:12;100665.66;;;-0.53;100.00
4767;BME280;2397;53.576;9.746;2024-01-06T03:20:39;100665.84;;;-0.56;100.00
4767;BME280;2397;53.576;9.746;2024-01-06T03:23:05;100667.69;;;-0.58;100.00
4767;BME280;2397;53.576;9.746;2024-01-06T03:25:32;100666.69;;;-0.56;100.00
4767;BME280;2397;53.576;9.746;2024-01-06T03:27:58;100670.84;;;-0.53;100.00
4767;BME280;2397;53.576;9.746;2024-01-06T03:30:25;100671.09;;;-0.58;100.00
4767;BME280;2397;53.576;9.746;2024-01-06T03:32:52;100675.38;;;-0.57;100.00
4767;BME280;2397;53.576;9.746;2024-01-06T03:35:18;100680.28;;;-0.52;100.00
4767;BME280;2397;53.576;9.746;2024-01-06T03:37:45;100680.50;;;-0.55;100.00
4767;BME280;2397;53.576;9.746;2024-01-06T03:40:12;100677.91;;;-0.55;100.00
4767;BME280;2397;53.576;9.746;2024-01-06T03:42:38;100683.91;;;-0.55;100.00
4767;BME280;2397;53.576;9.746;2024-01-06T03:45:05;100690.75;;;-0.54;100.00
4767;BME280;2397;53.576;9.746;2024-01-06T03:47:32;100699.09;;;-0.64;100.00
4767;BME280;2397;53.576;9.746;2024-01-06T03:49:58;100691.16;;;-0.61;100.00
4767;BME280;2397;53.576;9.746;2024-01-06T03:52:25;100688.41;;;-0.58;100.00
4767;BME280;2397;53.576;9.746;2024-01-06T03:54:52;100688.41;;;-0.58;100.00
4767;BME280;2397;53.576;9.746;2024-01-06T03:57:18;100691.91;;;-0.59;100.00
4767;BME280;2397;53.576;9.746;2024-01-06T03:59:45;100684.91;;;-0.57;100.00
4767;BME280;2397;53.576;9.746;2024-01-06T04:02:11;100696.28;;;-0.60;100.00
4767;BME280;2397;53.576;9.746;2024-01-06T04:04:38;100697.84;;;-0.57;100.00
4767;BME280;2397;53.576;9.746;2024-01-06T04:07:05;100693.34;;;-0.54;100.00
4767;BME280;2397;53.576;9.746;2024-01-06T04:09:33;100700.38;;;-0.56;100.00
4767;BME280;2397;53.576;9.746;2024-01-06T04:11:59;100707.16;;;-0.53;100.00
4767;BME280;2397;53.576;9.746;2024-01-06T04:14:28;100717.94;;;-0.61;100.00
4767;BME280;2397;53.576;9.746;2024-01-06T04:16:54;100718.69;;;-0.59;100.00
4767;BME280;2397;53.576;9.746;2024-01-06T04:19:23;100721.19;;;-0.57;100.00
4767;BME280;2397;53.576;9.746;2024-01-06T04:21:50;100719.53;;;-0.58;100.00
4767;BME280;2397;53.576;9.746;2024-01-06T04:24:17;100725.88;;;-0.48;100.00
4767;BME280;2397;53.576;9.746;2024-01-06T04:26:44;100727.03;;;-0.54;100.00
4767;BME280;2397;53.576;9.746;2024-01-06T04:29:12;100726.88;;;-0.51;100.00
4767;BME280;2397;53.576;9.746;2024-01-06T04:31:40;100728.47;;;-0.48;100.00
4767;BME280;2397;53.576;9.746;2024-01-06T04:34:07;100730.31;;;-0.50;100.00
4767;BME280;2397;53.576;9.746;2024-01-06T04:36:34;100731.97;;;-0.49;100.00
4767;BME280;2397;53.576;9.746;2024-01-06T04:39:01;100734.56;;;-0.49;100.00
4767;BME280;2397;53.576;9.746;2024-01-06T04:41:27;100739.59;;;-0.46;100.00
4767;BME280;2397;53.576;9.746;2024-01-06T04:43:54;100743.75;;;-0.59;100.00
4767;BME280;2397;53.576;9.746;2024-01-06T04:46:21;100742.44;;;-0.51;100.00
4767;BME280;2397;53.576;9.746;2024-01-06T04:48:47;100744.50;;;-0.57;100.00
4767;BME280;2397;53.576;9.746;2024-01-06T04:51:14;100750.13;;;-0.49;100.00
4767;BME280;2397;53.576;9.746;2024-01-06T04:53:42;100746.09;;;-0.55;100.00
4767;BME280;2397;53.576;9.746;2024-01-06T04:56:08;100756.06;;;-0.47;100.00
4767;BME280;2397;53.576;9.746;2024-01-06T04:58:35;100756.16;;;-0.49;100.00
4767;BME280;2397;53.576;9.746;2024-01-06T05:01:01;100763.50;;;-0.41;100.00
4767;BME280;2397;53.576;9.746;2024-01-06T05:03:28;100766.44;;;-0.47;100.00
4767;BME280;2397;53.576;9.746;2024-01-06T05:05:55;100769.03;;;-0.47;100.00
4767;BME280;2397;53.576;9.746;2024-01-06T05:08:22;100769.69;;;-0.44;100.00
4767;BME280;2397;53.576;9.746;2024-01-06T05:10:49;100774.88;;;-0.44;100.00
4767;BME280;2397;53.576;9.746;2024-01-06T05:13:16;100766.69;;;-0.52;100.00
4767;BME280;2397;53.576;9.746;2024-01-06T05:15:43;100767.44;;;-0.50;100.00
4767;BME280;2397;53.576;9.746;2024-01-06T05:18:10;100772.94;;;-0.56;100.00
4767;BME280;2397;53.576;9.746;2024-01-06T05:20:37;100782.47;;;-0.56;100.00
4767;BME280;2397;53.576;9.746;2024-01-06T05:23:03;100780.03;;;-0.59;100.00
4767;BME280;2397;53.576;9.746;2024-01-06T05:25:30;100787.50;;;-0.53;100.00
4767;BME280;2397;53.576;9.746;2024-01-06T05:27:56;100787.84;;;-0.44;100.00
4767;BME280;2397;53.576;9.746;2024-01-06T05:30:23;100794.97;;;-0.47;100.00
4767;BME280;2397;53.576;9.746;2024-01-06T05:32:50;100802.75;;;-0.47;100.00
4767;BME280;2397;53.576;9.746;2024-01-06T05:35:17;100802.59;;;-0.44;100.00
4767;BME280;2397;53.576;9.746;2024-01-06T05:37:43;100805.34;;;-0.47;100.00
4767;BME280;2397;53.576;9.746;2024-01-06T05:40:10;100819.56;;;-0.39;100.00
4767;BME280;2397;53.576;9.746;2024-01-06T05:42:38;100817.22;;;-0.43;100.00
4767;BME280;2397;53.576;9.746;2024-01-06T05:45:05;100833.69;;;-0.44;100.00
4767;BME280;2397;53.576;9.746;2024-01-06T05:47:32;100827.59;;;-0.43;100.00
4767;BME280;2397;53.576;9.746;2024-01-06T05:49:59;100835.50;;;-0.46;100.00
4767;BME280;2397;53.576;9.746;2024-01-06T05:52:25;100832.00;;;-0.45;100.00
4767;BME280;2397;53.576;9.746;2024-01-06T05:54:52;100838.09;;;-0.46;100.00
4767;BME280;2397;53.576;9.746;2024-01-06T05:57:19;100844.22;;;-0.47;100.00
4767;BME280;2397;53.576;9.746;2024-01-06T05:59:45;100843.88;;;-0.41;100.00
4767;BME280;2397;53.576;9.746;2024-01-06T06:02:12;100849.25;;;-0.44;100.00
4767;BME280;2397;53.576;9.746;2024-01-06T06:04:38;100856.09;;;-0.43;100.00
4767;BME280;2397;53.576;9.746;2024-01-06T06:07:05;100858.63;;;-0.42;100.00
4767;BME280;2397;53.576;9.746;2024-01-06T06:09:32;100856.47;;;-0.51;100.00
4767;BME280;2397;53.576;9.746;2024-01-06T06:12:01;100859.78;;;-0.47;100.00
4767;BME280;2397;53.576;9.746;2024-01-06T06:14:27;100873.56;;;-0.47;100.00
4767;BME280;2397;53.576;9.746;2024-01-06T06:16:56;100880.50;;;-0.47;100.00
4767;BME280;2397;53.576;9.746;2024-01-06T06:19:23;100883.69;;;-0.42;100.00
4767;BME280;2397;53.576;9.746;2024-01-06T06:21:50;100891.53;;;-0.44;100.00
4767;BME280;2397;53.576;9.746;2024-01-06T06:24:16;100888.28;;;-0.47;100.00
4767;BME280;2397;53.576;9.746;2024-01-06T06:26:43;100896.94;;;-0.48;100.00
4767;BME280;2397;53.576;9.746;2024-01-06T06:29:09;100894.53;;;-0.51;100.00
4767;BME280;2397;53.576;9.746;2024-01-06T06:31:36;100898.94;;;-0.53;100.00
4767;BME280;2397;53.576;9.746;2024-01-06T06:34:03;100907.56;;;-0.53;100.00
4767;BME280;2397;53.576;9.746;2024-01-06T06:36:34;100915.72;;;-0.43;100.00
4767;BME280;2397;53.576;9.746;2024-01-06T06:39:01;100914.28;;;-0.49;100.00
4767;BME280;2397;53.576;9.746;2024-01-06T06:41:28;100923.81;;;-0.49;100.00
4767;BME280;2397;53.576;9.746;2024-01-06T06:43:54;100917.25;;;-0.39;100.00
4767;BME280;2397;53.576;9.746;2024-01-06T06:46:21;100929.91;;;-0.50;100.00
4767;BME280;2397;53.576;9.746;2024-01-06T06:48:48;100932.34;;;-0.47;100.00
4767;BME280;2397;53.576;9.746;2024-01-06T06:51:14;100936.63;;;-0.46;100.00
4767;BME280;2397;53.576;9.746;2024-01-06T06:53:42;100941.94;;;-0.49;100.00
4767;BME280;2397;53.576;9.746;2024-01-06T06:56:08;100945.47;;;-0.50;100.00
4767;BME280;2397;53.576;9.746;2024-01-06T06:58:35;100943.63;;;-0.48;100.00
4767;BME280;2397;53.576;9.746;2024-01-06T07:01:02;100946.84;;;-0.43;100.00
4767;BME280;2397;53.576;9.746;2024-01-06T07:03:29;100953.38;;;-0.53;100.00
4767;BME280;2397;53.576;9.746;2024-01-06T07:05:55;100961.31;;;-0.56;100.00
4767;BME280;2397;53.576;9.746;2024-01-06T07:08:22;100961.00;;;-0.50;100.00
4767;BME280;2397;53.576;9.746;2024-01-06T07:10:48;100959.63;;;-0.57;100.00
4767;BME280;2397;53.576;9.746;2024-01-06T07:13:15;100963.69;;;-0.52;100.00
4767;BME280;2397;53.576;9.746;2024-01-06T07:15:42;100960.31;;;-0.54;100.00
4767;BME280;2397;53.576;9.746;2024-01-06T07:18:09;100966.19;;;-0.50;100.00
4767;BME280;2397;53.576;9.746;2024-01-06T07:20:36;100967.88;;;-0.49;100.00
4767;BME280;2397;53.576;9.746;2024-01-06T07:23:03;100962.53;;;-0.46;100.00
4767;BME280;2397;53.576;9.746;2024-01-06T07:25:29;100970.84;;;-0.57;100.00
4767;BME280;2397;53.576;9.746;2024-01-06T07:27:57;100972.84;;;-0.45;100.00
4767;BME280;2397;53.576;9.746;2024-01-06T07:30:24;100980.16;;;-0.53;100.00
4767;BME280;2397;53.576;9.746;2024-01-06T07:32:51;100986.16;;;-0.52;100.00
4767;BME280;2397;53.576;9.746;2024-01-06T07:35:18;100990.38;;;-0.50;100.00
4767;BME280;2397;53.576;9.746;2024-01-06T07:37:45;100996.47;;;-0.51;100.00
4767;BME280;2397;53.576;9.746;2024-01-06T07:40:12;101001.56;;;-0.49;100.00
4767;BME280;2397;53.576;9.746;2024-01-06T07:42:43;101006.00;;;-0.51;100.00
4767;BME280;2397;53.576;9.746;2024-01-06T07:45:10;101004.31;;;-0.52;100.00
4767;BME280;2397;53.576;9.746;2024-01-06T07:47:37;101011.25;;;-0.53;100.00
4767;BME280;2397;53.576;9.746;2024-01-06T07:50:05;101015.59;;;-0.53;100.00
4767;BME280;2397;53.576;9.746;2024-01-06T07:52:32;101024.16;;;-0.51;100.00
4767;BME280;2397;53.576;9.746;2024-01-06T07:54:59;101022.44;;;-0.52;100.00
4767;BME280;2397;53.576;9.746;2024-01-06T07:57:26;101027.31;;;-0.63;100.00
4767;BME280;2397;53.576;9.746;2024-01-06T07:59:52;101027.72;;;-0.54;100.00
4767;BME280;2397;53.576;9.746;2024-01-06T08:02:19;101032.22;;;-0.57;100.00
4767;BME280;2397;53.576;9.746;2024-01-06T08:04:45;101042.22;;;-0.50;100.00
4767;BME280;2397;53.576;9.746;2024-01-06T08:07:12;101043.81;;;-0.47;100.00
4767;BME280;2397;53.576;9.746;2024-01-06T08:09:40;101048.75;;;-0.43;100.00
4767;BME280;2397;53.576;9.746;2024-01-06T08:12:07;101060.13;;;-0.45;100.00
4767;BME280;2397;53.576;9.746;2024-01-06T08:14:34;101055.19;;;-0.50;100.00
4767;BME280;2397;53.576;9.746;2024-01-06T08:17:00;101054.19;;;-0.47;100.00
4767;BME280;2397;53.576;9.746;2024-01-06T08:19:27;101068.06;;;-0.48;100.00
4767;BME280;2397;53.576;9.746;2024-01-06T08:21:56;101070.34;;;-0.42;100.00
4767;BME280;2397;53.576;9.746;2024-01-06T08:24:23;101067.63;;;-0.39;100.00
4767;BME280;2397;53.576;9.746;2024-01-06T08:26:49;101071.44;;;-0.46;100.00
4767;BME280;2397;53.576;9.746;2024-01-06T08:29:16;101078.28;;;-0.45;100.00
4767;BME280;2397;53.576;9.746;2024-01-06T08:31:45;101083.00;;;-0.53;100.00
4767;BME280;2397;53.576;9.746;2024-01-06T08:34:12;101096.50;;;-0.47;100.00
4767;BME280;2397;53.576;9.746;2024-01-06T08:36:41;101097.34;;;-0.46;100.00
4767;BME280;2397;53.576;9.746;2024-01-06T08:39:07;101100.88;;;-0.47;100.00
4767;BME280;2397;53.576;9.746;2024-01-06T08:41:34;101114.72;;;-0.48;100.00
4767;BME280;2397;53.576;9.746;2024-01-06T08:44:01;101113.81;;;-0.47;100.00
4767;BME280;2397;53.576;9.746;2024-01-06T08:46:27;101118.88;;;-0.44;100.00
4767;BME280;2397;53.576;9.746;2024-01-06T08:48:54;101109.09;;;-0.39;100.00
4767;BME280;2397;53.576;9.746;2024-01-06T08:51:21;101123.69;;;-0.37;100.00
4767;BME280;2397;53.576;9.746;2024-01-06T08:53:47;101130.19;;;-0.28;100.00
4767;BME280;2397;53.576;9.746;2024-01-06T08:56:14;101134.59;;;-0.30;100.00
4767;BME280;2397;53.576;9.746;2024-01-06T08:58:42;101132.91;;;-0.31;100.00
4767;BME280;2397;53.576;9.746;2024-01-06T09:01:09;101141.63;;;-0.32;100.00
4767;BME280;2397;53.576;9.746;2024-01-06T09:03:36;101144.13;;;-0.31;100.00
4767;BME280;2397;53.576;9.746;2024-01-06T09:06:03;101146.72;;;-0.31;100.00
4767;BME280;2397;53.576;9.746;2024-01-06T09:08:30;101156.88;;;-0.26;100.00
4767;BME280;2397;53.576;9.746;2024-01-06T09:10:57;101161.22;;;-0.27;100.00
4767;BME280;2397;53.576;9.746;2024-01-06T09:13:25;101161.16;;;-0.25;100.00
4767;BME280;2397;53.576;9.746;2024-01-06T09:15:51;101155.19;;;-0.27;100.00
4767;BME280;2397;53.576;9.746;2024-01-06T09:18:18;101163.50;;;-0.21;100.00
4767;BME280;2397;53.576;9.746;2024-01-06T09:20:45;101169.69;;;-0.23;100.00
4767;BME280;2397;53.576;9.746;2024-01-06T09:23:15;101172.28;;;-0.23;100.00
4767;BME280;2397;53.576;9.746;2024-01-06T09:25:42;101174.75;;;-0.20;100.00
4767;BME280;2397;53.576;9.746;2024-01-06T09:28:08;101177.59;;;-0.26;100.00
4767;BME280;2397;53.576;9.746;2024-01-06T09:30:35;101177.41;;;-0.22;100.00
4767;BME280;2397;53.576;9.746;2024-01-06T09:33:03;101179.44;;;-0.28;100.00
4767;BME280;2397;53.576;9.746;2024-01-06T09:35:30;101182.38;;;-0.17;100.00
4767;BME280;2397;53.576;9.746;2024-01-06T09:37:57;101184.19;;;-0.19;100.00
4767;BME280;2397;53.576;9.746;2024-01-06T09:40:24;101187.72;;;-0.20;100.00
4767;BME280;2397;53.576;9.746;2024-01-06T09:42:51;101185.72;;;-0.15;100.00
4767;BME280;2397;53.576;9.746;2024-01-06T09:45:18;101192.53;;;-0.13;100.00
4767;BME280;2397;53.576;9.746;2024-01-06T09:47:49;101204.66;;;-0.13;100.00
4767;BME280;2397;53.576;9.746;2024-01-06T09:50:19;101201.59;;;-0.21;100.00
4767;BME280;2397;53.576;9.746;2024-01-06T09:52:48;101201.28;;;-0.15;100.00
4767;BME280;2397;53.576;9.746;2024-01-06T09:55:26;101195.22;;;-0.14;100.00
4767;BME280;2397;53.576;9.746;2024-01-06T09:57:53;101195.06;;;-0.11;100.00
4767;BME280;2397;53.576;9.746;2024-01-06T10:00:20;101201.16;;;-0.12;100.00
4767;BME280;2397;53.576;9.746;2024-01-06T10:02:48;101199.19;;;-0.07;100.00
4767;BME280;2397;53.576;9.746;2024-01-06T10:05:16;101210.53;;;-0.10;100.00
4767;BME280;2397;53.576;9.746;2024-01-06T10:07:46;101213.22;;;-0.11;100.00
4767;BME280;2397;53.576;9.746;2024-01-06T10:10:13;101211.53;;;-0.12;100.00
4767;BME280;2397;53.576;9.746;2024-01-06T10:12:41;101216.50;;;-0.08;100.00
4767;BME280;2397;53.576;9.746;2024-01-06T10:15:10;101221.75;;;-0.09;100.00
4767;BME280;2397;53.576;9.746;2024-01-06T10:17:38;101220.50;;;-0.01;100.00
4767;BME280;2397;53.576;9.746;2024-01-06T10:20:10;101220.84;;;-0.08;100.00
4767;BME280;2397;53.576;9.746;2024-01-06T10:22:38;101228.50;;;-0.05;100.00
4767;BME280;2397;53.576;9.746;2024-01-06T10:25:08;101219.25;;;-0.11;100.00
4767;BME280;2397;53.576;9.746;2024-01-06T10:27:38;101228.88;;;-0.13;100.00
4767;BME280;2397;53.576;9.746;2024-01-06T10:30:06;101229.63;;;-0.11;100.00
4767;BME280;2397;53.576;9.746;2024-01-06T10:32:34;101226.81;;;-0.06;100.00
4767;BME280;2397;53.576;9.746;2024-01-06T10:35:01;101230.09;;;-0.03;100.00
4767;BME280;2397;53.576;9.746;2024-01-06T10:37:28;101237.53;;;-0.14;100.00
4767;BME280;2397;53.576;9.746;2024-01-06T10:40:15;101228.94;;;-0.14;100.00
4767;BME280;2397;53.576;9.746;2024-01-06T10:42:45;101242.03;;;-0.17;100.00
4767;BME280;2397;53.576;9.746;2024-01-06T10:45:13;101243.09;;;-0.21;100.00
4767;BME280;2397;53.576;9.746;2024-01-06T10:47:42;101242.78;;;-0.15;100.00
4767;BME280;2397;53.576;9.746;2024-01-06T10:50:10;101247.16;;;-0.16;100.00
4767;BME280;2397;53.576;9.746;2024-01-06T10:52:38;101251.63;;;-0.19;100.00
4767;BME280;2397;53.576;9.746;2024-01-06T10:55:05;101240.19;;;-0.15;100.00
4767;BME280;2397;53.576;9.746;2024-01-06T10:57:32;101246.31;;;-0.16;100.00
4767;BME280;2397;53.576;9.746;2024-01-06T11:00:00;101246.94;;;-0.11;100.00
4767;BME280;2397;53.576;9.746;2024-01-06T11:02:27;101258.34;;;-0.15;100.00
4767;BME280;2397;53.576;9.746;2024-01-06T11:04:53;101263.28;;;-0.09;100.00
4767;BME280;2397;53.576;9.746;2024-01-06T11:07:22;101263.53;;;-0.15;100.00
4767;BME280;2397;53.576;9.746;2024-01-06T11:10:16;101264.81;;;-0.05;100.00
4767;BME280;2397;53.576;9.746;2024-01-06T11:12:44;101270.00;;;-0.05;100.00
4767;BME280;2397;53.576;9.746;2024-01-06T11:15:43;101276.72;;;-0.01;100.00
4767;BME280;2397;53.576;9.746;2024-01-06T11:21:16;101279.88;;;0.05;100.00
4767;BME280;2397;53.576;9.746;2024-01-06T11:26:33;101282.97;;;-0.05;100.00
4767;BME280;2397;53.576;9.746;2024-01-06T11:29:00;101277.56;;;-0.01;100.00
4767;BME280;2397;53.576;9.746;2024-01-06T11:31:30;101280.78;;;0.04;100.00
4767;BME280;2397;53.576;9.746;2024-01-06T11:34:12;101277.72;;;-0.04;100.00
4767;BME280;2397;53.576;9.746;2024-01-06T11:36:39;101283.44;;;0.03;100.00
4767;BME280;2397;53.576;9.746;2024-01-06T11:39:05;101279.97;;;0.04;100.00
4767;BME280;2397;53.576;9.746;2024-01-06T11:41:48;101290.63;;;-0.02;100.00
4767;BME280;2397;53.576;9.746;2024-01-06T11:44:22;101285.50;;;-0.04;100.00
4767;BME280;2397;53.576;9.746;2024-01-06T11:46:49;101297.34;;;0.02;100.00
4767;BME280;2397;53.576;9.746;2024-01-06T11:49:16;101299.31;;;-0.03;100.00
4767;BME280;2397;53.576;9.746;2024-01-06T11:51:43;101293.34;;;-0.05;100.00
4767;BME280;2397;53.576;9.746;2024-01-06T11:54:09;101290.34;;;0.04;100.00
4767;BME280;2397;53.576;9.746;2024-01-06T11:56:36;101294.75;;;0.02;100.00
4767;BME280;2397;53.576;9.746;2024-01-06T11:59:02;101286.00;;;-0.14;100.00
4767;BME280;2397;53.576;9.746;2024-01-06T12:01:38;101288.22;;;-0.07;100.00
4767;BME280;2397;53.576;9.746;2024-01-06T12:04:06;101291.88;;;-0.11;100.00
4767;BME280;2397;53.576;9.746;2024-01-06T12:06:33;101287.34;;;-0.06;100.00
4767;BME280;2397;53.576;9.746;2024-01-06T12:09:07;101290.13;;;-0.10;100.00
4767;BME280;2397;53.576;9.746;2024-01-06T12:11:34;101291.66;;;-0.06;100.00
4767;BME280;2397;53.576;9.746;2024-01-06T12:14:01;101294.94;;;-0.03;100.00
4767;BME280;2397;53.576;9.746;2024-01-06T12:16:28;101295.66;;;0.01;100.00
4767;BME280;2397;53.576;9.746;2024-01-06T12:18:55;101297.63;;;-0.04;100.00
4767;BME280;2397;53.576;9.746;2024-01-06T12:21:23;101290.34;;;0.04;100.00
4767;BME280;2397;53.576;9.746;2024-01-06T12:23:50;101301.91;;;-0.03;100.00
4767;BME280;2397;53.576;9.746;2024-01-06T12:26:18;101303.66;;;-0.04;100.00
4767;BME280;2397;53.576;9.746;2024-01-06T12:28:45;101302.81;;;-0.04;100.00
4767;BME280;2397;53.576;9.746;2024-01-06T12:31:12;101304.56;;;-0.05;100.00
4767;BME280;2397;53.576;9.746;2024-01-06T12:33:39;101306.63;;;-0.11;100.00
4767;BME280;2397;53.576;9.746;2024-01-06T12:36:07;101311.22;;;-0.18;100.00
4767;BME280;2397;53.576;9.746;2024-01-06T12:38:46;101317.13;;;-0.14;100.00
4767;BME280;2397;53.576;9.746;2024-01-06T12:41:13;101324.63;;;-0.08;100.00
4767;BME280;2397;53.576;9.746;2024-01-06T12:43:39;101319.06;;;-0.19;100.00
4767;BME280;2397;53.576;9.746;2024-01-06T12:46:06;101327.84;;;-0.22;100.00
4767;BME280;2397;53.576;9.746;2024-01-06T12:48:32;101320.97;;;-0.23;100.00
4767;BME280;2397;53.576;9.746;2024-01-06T12:50:59;101326.59;;;-0.13;100.00
4767;BME280;2397;53.576;9.746;2024-01-06T12:53:25;101326.53;;;-0.12;100.00
4767;BME280;2397;53.576;9.746;2024-01-06T12:55:52;101327.63;;;-0.17;100.00
4767;BME280;2397;53.576;9.746;2024-01-06T12:58:18;101328.63;;;-0.20;100.00
4767;BME280;2397;53.576;9.746;2024-01-06T13:00:45;101332.97;;;-0.20;100.00
4767;BME280;2397;53.576;9.746;2024-01-06T13:03:11;101332.09;;;-0.21;100.00
4767;BME280;2397;53.576;9.746;2024-01-06T13:05:39;101330.97;;;-0.15;100.00
4767;BME280;2397;53.576;9.746;2024-01-06T13:08:06;101333.69;;;-0.17;100.00